< < Back
Terminal Aerodrome Forecast


Current Version              Previous Versions:   1  2  3  4  5  6  7  8  9  

Terminal Aerodrome Forecast

718
FTUS42 KCHS 200500
TAFCHS
TAF
KCHS 200522Z 2006/2106 01012KT 6SM -SHRA BKN009 OVC015
     FM200800 01014G20KT P6SM VCSH OVC008
     FM201500 02017G25KT P6SM VCSH SCT009 OVC015
     FM210000 36011KT P6SM BKN025=



Latest METAR

658
SAUS80 KWBC 200600 CCA
MTRCHS
METAR KCHS 200556Z 36009KT 7SM RA BKN012 OVC020 12/10 A3004 RMK AO2
SLP171 P0010 60035 T01170100 10144 20117 58006


USA.gov is the U.S. government's official web portal to all federal, state and local government web resources and services.